sensor_id;sensor_type;location;lat;lon;timestamp;pressure;altitude;pressure_sealevel;temperature;humidity
67052;BME280;53957;47.222;18.670;2023-03-20T00:01:29;100223.59;;;7.07;95.75
67052;BME280;53957;47.222;18.670;2023-03-20T00:04:35;100226.47;;;7.06;95.89
67052;BME280;53957;47.222;18.670;2023-03-20T00:07:38;100228.31;;;7.00;95.63
67052;BME280;53957;47.222;18.670;2023-03-20T00:10:43;100218.22;;;6.97;96.20
67052;BME280;53957;47.222;18.670;2023-03-20T00:13:47;100223.25;;;6.93;96.65
67052;BME280;53957;47.222;18.670;2023-03-20T00:16:51;100223.75;;;6.85;97.16
67052;BME280;53957;47.222;18.670;2023-03-20T00:20:20;100229.81;;;6.81;95.37
67052;BME280;53957;47.222;18.670;2023-03-20T00:23:24;100221.16;;;6.53;94.39
67052;BME280;53957;47.222;18.670;2023-03-20T00:26:32;100216.97;;;6.62;95.25
67052;BME280;53957;47.222;18.670;2023-03-20T00:29:36;100214.75;;;6.43;96.11
67052;BME280;53957;47.222;18.670;2023-03-20T00:32:43;100222.19;;;6.52;95.79
67052;BME280;53957;47.222;18.670;2023-03-20T00:35:48;100213.03;;;6.27;98.31
67052;BME280;53957;47.222;18.670;2023-03-20T00:38:54;100211.25;;;6.38;99.97
67052;BME280;53957;47.222;18.670;2023-03-20T00:42:02;100207.44;;;6.23;99.74
67052;BME280;53957;47.222;18.670;2023-03-20T00:45:18;100202.63;;;6.15;100.00
67052;BME280;53957;47.222;18.670;2023-03-20T00:48:26;100205.66;;;6.34;99.66
67052;BME280;53957;47.222;18.670;2023-03-20T00:51:31;100204.62;;;6.35;99.20
67052;BME280;53957;47.222;18.670;2023-03-20T00:54:34;100206.28;;;6.47;99.34
67052;BME280;53957;47.222;18.670;2023-03-20T00:57:49;100208.94;;;6.52;100.00
67052;BME280;53957;47.222;18.670;2023-03-20T01:00:54;100205.84;;;6.60;100.00
67052;BME280;53957;47.222;18.670;2023-03-20T01:03:59;100201.56;;;6.59;100.00
67052;BME280;53957;47.222;18.670;2023-03-20T01:07:05;100202.16;;;6.66;100.00
67052;BME280;53957;47.222;18.670;2023-03-20T01:10:11;100202.59;;;6.53;100.00
67052;BME280;53957;47.222;18.670;2023-03-20T01:16:26;100212.75;;;6.66;100.00
67052;BME280;53957;47.222;18.670;2023-03-20T01:19:30;100209.06;;;6.67;100.00
67052;BME280;53957;47.222;18.670;2023-03-20T01:22:34;100201.12;;;6.29;100.00
67052;BME280;53957;47.222;18.670;2023-03-20T01:26:03;100201.25;;;6.50;100.00
67052;BME280;53957;47.222;18.670;2023-03-20T01:29:26;100197.59;;;6.56;100.00
67052;BME280;53957;47.222;18.670;2023-03-20T01:32:29;100192.16;;;6.79;100.00
67052;BME280;53957;47.222;18.670;2023-03-20T01:35:32;100184.91;;;6.21;100.00
67052;BME280;53957;47.222;18.670;2023-03-20T01:38:37;100190.63;;;6.45;100.00
67052;BME280;53957;47.222;18.670;2023-03-20T01:41:41;100189.56;;;6.41;100.00
67052;BME280;53957;47.222;18.670;2023-03-20T01:45:14;100183.44;;;6.40;100.00
67052;BME280;53957;47.222;18.670;2023-03-20T01:48:18;100189.78;;;6.39;100.00
67052;BME280;53957;47.222;18.670;2023-03-20T01:51:25;100176.53;;;6.34;100.00
67052;BME280;53957;47.222;18.670;2023-03-20T01:54:33;100188.38;;;6.21;100.00
67052;BME280;53957;47.222;18.670;2023-03-20T01:57:39;100179.56;;;6.16;100.00
67052;BME280;53957;47.222;18.670;2023-03-20T02:00:44;100176.94;;;6.16;100.00
67052;BME280;53957;47.222;18.670;2023-03-20T02:03:54;100182.94;;;6.06;100.00
67052;BME280;53957;47.222;18.670;2023-03-20T02:07:20;100187.62;;;5.99;100.00
67052;BME280;53957;47.222;18.670;2023-03-20T02:10:25;100187.84;;;5.92;100.00
67052;BME280;53957;47.222;18.670;2023-03-20T02:13:33;100183.84;;;5.89;100.00
67052;BME280;53957;47.222;18.670;2023-03-20T02:16:37;100176.91;;;5.83;100.00
67052;BME280;53957;47.222;18.670;2023-03-20T02:34:27;100180.50;;;5.44;100.00
67052;BME280;53957;47.222;18.670;2023-03-20T02:50:43;100178.44;;;5.02;100.00
67052;BME280;53957;47.222;18.670;2023-03-20T02:57:31;100183.06;;;4.90;100.00
67052;BME280;53957;47.222;18.670;2023-03-20T03:01:09;100188.28;;;4.84;100.00
67052;BME280;53957;47.222;18.670;2023-03-20T03:04:36;100186.25;;;4.70;100.00
67052;BME280;53957;47.222;18.670;2023-03-20T03:07:45;100186.59;;;4.39;100.00
67052;BME280;53957;47.222;18.670;2023-03-20T03:10:53;100191.62;;;4.41;100.00
67052;BME280;53957;47.222;18.670;2023-03-20T03:14:01;100197.41;;;4.38;100.00
67052;BME280;53957;47.222;18.670;2023-03-20T03:17:07;100200.13;;;4.43;100.00
67052;BME280;53957;47.222;18.670;2023-03-20T03:20:34;100193.75;;;4.22;100.00
67052;BME280;53957;47.222;18.670;2023-03-20T03:23:47;100197.59;;;4.14;100.00
67052;BME280;53957;47.222;18.670;2023-03-20T03:26:52;100198.38;;;4.14;100.00
67052;BME280;53957;47.222;18.670;2023-03-20T03:29:59;100197.25;;;4.10;100.00
67052;BME280;53957;47.222;18.670;2023-03-20T03:33:13;100200.03;;;4.03;100.00
67052;BME280;53957;47.222;18.670;2023-03-20T03:37:00;100199.19;;;3.98;100.00
67052;BME280;53957;47.222;18.670;2023-03-20T03:40:07;100193.84;;;3.64;100.00
67052;BME280;53957;47.222;18.670;2023-03-20T03:43:21;100195.00;;;3.68;100.00
67052;BME280;53957;47.222;18.670;2023-03-20T03:49:43;100195.12;;;3.61;100.00
67052;BME280;53957;47.222;18.670;2023-03-20T03:52:55;100194.13;;;3.21;100.00
67052;BME280;53957;47.222;18.670;2023-03-20T03:56:04;100198.44;;;3.40;100.00
67052;BME280;53957;47.222;18.670;2023-03-20T04:02:39;100204.31;;;3.30;100.00
67052;BME280;53957;47.222;18.670;2023-03-20T04:05:45;100201.47;;;3.19;100.00
67052;BME280;53957;47.222;18.670;2023-03-20T04:08:52;100207.75;;;3.18;100.00
67052;BME280;53957;47.222;18.670;2023-03-20T04:12:35;100211.88;;;3.26;100.00
67052;BME280;53957;47.222;18.670;2023-03-20T04:15:42;100213.69;;;3.26;100.00
67052;BME280;53957;47.222;18.670;2023-03-20T04:18:46;100219.00;;;3.14;100.00
67052;BME280;53957;47.222;18.670;2023-03-20T04:21:50;100215.22;;;3.10;100.00
67052;BME280;53957;47.222;18.670;2023-03-20T04:24:55;100218.25;;;2.89;100.00
67052;BME280;53957;47.222;18.670;2023-03-20T04:28:01;100221.00;;;2.83;100.00
67052;BME280;53957;47.222;18.670;2023-03-20T04:31:05;100219.41;;;2.82;100.00
67052;BME280;53957;47.222;18.670;2023-03-20T04:34:29;100215.28;;;2.86;100.00
67052;BME280;53957;47.222;18.670;2023-03-20T04:37:36;100209.22;;;2.73;100.00
67052;BME280;53957;47.222;18.670;2023-03-20T04:40:40;100210.25;;;2.72;100.00
67052;BME280;53957;47.222;18.670;2023-03-20T04:43:43;100213.13;;;2.71;100.00
67052;BME280;53957;47.222;18.670;2023-03-20T04:46:46;100215.06;;;2.76;100.00
67052;BME280;53957;47.222;18.670;2023-03-20T04:49:50;100220.00;;;2.72;100.00
67052;BME280;53957;47.222;18.670;2023-03-20T04:53:14;100211.84;;;2.62;100.00
67052;BME280;53957;47.222;18.670;2023-03-20T04:56:25;100207.72;;;2.54;100.00
67052;BME280;53957;47.222;18.670;2023-03-20T04:59:30;100217.69;;;2.40;100.00
67052;BME280;53957;47.222;18.670;2023-03-20T05:02:42;100208.97;;;2.28;100.00
67052;BME280;53957;47.222;18.670;2023-03-20T05:05:46;100220.37;;;2.09;100.00
67052;BME280;53957;47.222;18.670;2023-03-20T05:08:58;100218.34;;;2.23;100.00
67052;BME280;53957;47.222;18.670;2023-03-20T05:12:03;100222.38;;;2.38;100.00
67052;BME280;53957;47.222;18.670;2023-03-20T05:15:08;100229.34;;;2.68;100.00
67052;BME280;53957;47.222;18.670;2023-03-20T05:18:11;100233.84;;;2.79;100.00
67052;BME280;53957;47.222;18.670;2023-03-20T05:21:27;100246.53;;;2.82;100.00
67052;BME280;53957;47.222;18.670;2023-03-20T05:24:53;100252.38;;;2.72;100.00
67052;BME280;53957;47.222;18.670;2023-03-20T05:27:58;100248.34;;;2.94;100.00
67052;BME280;53957;47.222;18.670;2023-03-20T05:31:03;100256.97;;;2.89;100.00
67052;BME280;53957;47.222;18.670;2023-03-20T05:34:29;100250.06;;;3.00;100.00
67052;BME280;53957;47.222;18.670;2023-03-20T05:37:37;100251.78;;;3.06;100.00
67052;BME280;53957;47.222;18.670;2023-03-20T05:40:44;100252.94;;;3.10;100.00
67052;BME280;53957;47.222;18.670;2023-03-20T05:43:48;100257.63;;;2.96;100.00
67052;BME280;53957;47.222;18.670;2023-03-20T05:46:52;100263.94;;;3.07;100.00
67052;BME280;53957;47.222;18.670;2023-03-20T05:50:15;100253.91;;;3.45;100.00
67052;BME280;53957;47.222;18.670;2023-03-20T05:53:18;100260.19;;;3.73;100.00
67052;BME280;53957;47.222;18.670;2023-03-20T05:56:22;100270.31;;;3.76;100.00
67052;BME280;53957;47.222;18.670;2023-03-20T05:59:26;100270.81;;;3.90;100.00
67052;BME280;53957;47.222;18.670;2023-03-20T06:02:30;100278.69;;;4.18;100.00
67052;BME280;53957;47.222;18.670;2023-03-20T06:05:34;100283.03;;;4.42;100.00
67052;BME280;53957;47.222;18.670;2023-03-20T06:08:41;100280.72;;;4.62;100.00
67052;BME280;53957;47.222;18.670;2023-03-20T06:11:44;100280.69;;;4.96;100.00
67052;BME280;53957;47.222;18.670;2023-03-20T06:14:50;100278.34;;;5.67;100.00
67052;BME280;53957;47.222;18.670;2023-03-20T06:17:55;100279.84;;;5.79;100.00
67052;BME280;53957;47.222;18.670;2023-03-20T06:21:00;100284.13;;;6.40;100.00
67052;BME280;53957;47.222;18.670;2023-03-20T06:24:05;100285.84;;;7.00;100.00
67052;BME280;53957;47.222;18.670;2023-03-20T06:27:19;100287.03;;;7.24;100.00
67052;BME280;53957;47.222;18.670;2023-03-20T06:30:22;100286.94;;;7.62;100.00
67052;BME280;53957;47.222;18.670;2023-03-20T06:33:25;100288.59;;;7.89;100.00
67052;BME280;53957;47.222;18.670;2023-03-20T06:36:30;100297.69;;;8.45;96.99
67052;BME280;53957;47.222;18.670;2023-03-20T06:39:54;100290.69;;;9.16;91.68
67052;BME280;53957;47.222;18.670;2023-03-20T06:43:17;100297.03;;;9.30;89.64
67052;BME280;53957;47.222;18.670;2023-03-20T06:46:21;100303.72;;;9.83;85.40
67052;BME280;53957;47.222;18.670;2023-03-20T06:49:33;100306.09;;;10.64;80.53
67052;BME280;53957;47.222;18.670;2023-03-20T06:52:56;100305.41;;;10.53;80.58
67052;BME280;53957;47.222;18.670;2023-03-20T06:56:03;100304.00;;;10.90;79.47
67052;BME280;53957;47.222;18.670;2023-03-20T06:59:06;100307.12;;;11.46;77.87
67052;BME280;53957;47.222;18.670;2023-03-20T07:02:10;100304.75;;;12.40;71.34
67052;BME280;53957;47.222;18.670;2023-03-20T07:05:15;100316.97;;;13.07;67.07
67052;BME280;53957;47.222;18.670;2023-03-20T07:08:27;100313.75;;;12.63;69.47
67052;BME280;53957;47.222;18.670;2023-03-20T07:11:30;100320.50;;;12.42;68.62
67052;BME280;53957;47.222;18.670;2023-03-20T07:14:54;100320.00;;;11.63;73.29
67052;BME280;53957;47.222;18.670;2023-03-20T07:18:26;100320.19;;;12.10;73.32
67052;BME280;53957;47.222;18.670;2023-03-20T07:21:58;100324.87;;;12.70;67.94
67052;BME280;53957;47.222;18.670;2023-03-20T07:25:07;100328.22;;;13.51;65.36
67052;BME280;53957;47.222;18.670;2023-03-20T07:28:31;100327.06;;;12.82;66.42
67052;BME280;53957;47.222;18.670;2023-03-20T07:31:40;100318.13;;;12.21;70.11
67052;BME280;53957;47.222;18.670;2023-03-20T07:34:48;100322.28;;;12.13;70.50
67052;BME280;53957;47.222;18.670;2023-03-20T07:38:11;100315.78;;;12.85;66.79
67052;BME280;53957;47.222;18.670;2023-03-20T07:41:16;100323.66;;;12.30;68.21
67052;BME280;53957;47.222;18.670;2023-03-20T07:44:21;100323.00;;;12.52;67.37
67052;BME280;53957;47.222;18.670;2023-03-20T07:47:25;100333.44;;;13.14;65.83
67052;BME280;53957;47.222;18.670;2023-03-20T07:50:28;100334.81;;;12.98;64.15
67052;BME280;53957;47.222;18.670;2023-03-20T07:53:41;100332.03;;;13.87;57.84
67052;BME280;53957;47.222;18.670;2023-03-20T07:57:00;100344.12;;;13.98;56.77
67052;BME280;53957;47.222;18.670;2023-03-20T08:00:14;100337.53;;;13.53;59.71
67052;BME280;53957;47.222;18.670;2023-03-20T08:03:20;100341.00;;;14.05;56.62
67052;BME280;53957;47.222;18.670;2023-03-20T08:06:43;100350.62;;;14.88;55.16
67052;BME280;53957;47.222;18.670;2023-03-20T08:10:08;100346.84;;;14.66;53.61
67052;BME280;53957;47.222;18.670;2023-03-20T08:13:11;100336.88;;;14.44;55.16
67052;BME280;53957;47.222;18.670;2023-03-20T08:16:32;100334.41;;;15.02;52.93
67052;BME280;53957;47.222;18.670;2023-03-20T08:19:55;100336.28;;;15.50;52.87
67052;BME280;53957;47.222;18.670;2023-03-20T08:23:18;100333.81;;;15.13;53.54
67052;BME280;53957;47.222;18.670;2023-03-20T08:26:41;100338.66;;;15.52;51.99
67052;BME280;53957;47.222;18.670;2023-03-20T08:29:54;100338.47;;;15.39;51.46
67052;BME280;53957;47.222;18.670;2023-03-20T08:33:02;100338.69;;;15.60;52.02
67052;BME280;53957;47.222;18.670;2023-03-20T08:36:06;100338.84;;;15.64;50.53
67052;BME280;53957;47.222;18.670;2023-03-20T08:39:09;100334.50;;;15.86;49.62
67052;BME280;53957;47.222;18.670;2023-03-20T08:42:32;100332.75;;;16.42;50.04
67052;BME280;53957;47.222;18.670;2023-03-20T08:46:15;100337.41;;;15.58;48.21
67052;BME280;53957;47.222;18.670;2023-03-20T08:49:39;100338.87;;;16.61;48.16
67052;BME280;53957;47.222;18.670;2023-03-20T08:53:10;100342.97;;;15.70;49.31
67052;BME280;53957;47.222;18.670;2023-03-20T08:56:35;100349.03;;;15.93;52.05
67052;BME280;53957;47.222;18.670;2023-03-20T08:59:58;100347.66;;;16.22;50.23
67052;BME280;53957;47.222;18.670;2023-03-20T09:03:11;100346.47;;;16.67;48.41
67052;BME280;53957;47.222;18.670;2023-03-20T09:06:26;100350.16;;;16.36;48.08
67052;BME280;53957;47.222;18.670;2023-03-20T09:10:10;100355.72;;;16.31;50.21
67052;BME280;53957;47.222;18.670;2023-03-20T09:13:33;100356.44;;;16.58;45.03
67052;BME280;53957;47.222;18.670;2023-03-20T09:16:57;100363.84;;;16.96;47.42
67052;BME280;53957;47.222;18.670;2023-03-20T09:20:05;100356.81;;;16.13;47.77
67052;BME280;53957;47.222;18.670;2023-03-20T09:23:08;100360.94;;;16.28;49.71
67052;BME280;53957;47.222;18.670;2023-03-20T09:26:51;100365.50;;;15.92;49.17
67052;BME280;53957;47.222;18.670;2023-03-20T09:29:54;100366.94;;;16.33;48.08
67052;BME280;53957;47.222;18.670;2023-03-20T09:33:06;100375.44;;;16.70;45.95
67052;BME280;53957;47.222;18.670;2023-03-20T09:36:32;100370.03;;;16.88;46.78
67052;BME280;53957;47.222;18.670;2023-03-20T09:39:54;100369.63;;;16.16;45.04
67052;BME280;53957;47.222;18.670;2023-03-20T09:47:26;100371.66;;;17.28;44.43
67052;BME280;53957;47.222;18.670;2023-03-20T09:50:44;100374.03;;;17.29;42.21
67052;BME280;53957;47.222;18.670;2023-03-20T09:54:38;100371.25;;;17.77;41.48
67052;BME280;53957;47.222;18.670;2023-03-20T09:58:25;100368.78;;;16.94;41.92
67052;BME280;53957;47.222;18.670;2023-03-20T10:01:34;100362.59;;;16.85;43.11
67052;BME280;53957;47.222;18.670;2023-03-20T10:04:58;100360.69;;;17.33;41.52
67052;BME280;53957;47.222;18.670;2023-03-20T10:08:26;100363.53;;;17.36;42.52
67052;BME280;53957;47.222;18.670;2023-03-20T10:18:26;100363.72;;;17.31;41.22
67052;BME280;53957;47.222;18.670;2023-03-20T10:21:46;100359.75;;;17.59;42.53
67052;BME280;53957;47.222;18.670;2023-03-20T10:24:56;100352.78;;;17.58;42.42
67052;BME280;53957;47.222;18.670;2023-03-20T10:38:34;100360.94;;;17.49;42.45
67052;BME280;53957;47.222;18.670;2023-03-20T10:41:50;100363.44;;;17.54;40.49
67052;BME280;53957;47.222;18.670;2023-03-20T10:45:32;100353.75;;;17.23;41.40
67052;BME280;53957;47.222;18.670;2023-03-20T10:52:30;100349.66;;;17.77;44.33
67052;BME280;53957;47.222;18.670;2023-03-20T10:55:40;100351.94;;;17.96;41.45
67052;BME280;53957;47.222;18.670;2023-03-20T10:59:35;100351.91;;;17.75;43.10
67052;BME280;53957;47.222;18.670;2023-03-20T11:02:59;100348.09;;;17.76;44.30
67052;BME280;53957;47.222;18.670;2023-03-20T11:06:22;100344.00;;;17.69;44.04
67052;BME280;53957;47.222;18.670;2023-03-20T11:09:31;100337.03;;;17.68;43.46
67052;BME280;53957;47.222;18.670;2023-03-20T11:12:46;100328.78;;;17.65;41.25
67052;BME280;53957;47.222;18.670;2023-03-20T11:16:18;100328.13;;;17.68;44.00
67052;BME280;53957;47.222;18.670;2023-03-20T11:19:23;100327.06;;;17.60;43.20
67052;BME280;53957;47.222;18.670;2023-03-20T11:22:27;100326.72;;;17.41;41.22
67052;BME280;53957;47.222;18.670;2023-03-20T11:29:34;100316.75;;;17.62;42.25
67052;BME280;53957;47.222;18.670;2023-03-20T11:32:49;100329.63;;;17.57;42.12
67052;BME280;53957;47.222;18.670;2023-03-20T11:36:20;100317.22;;;17.64;40.77
67052;BME280;53957;47.222;18.670;2023-03-20T11:39:28;100312.00;;;17.59;41.66
67052;BME280;53957;47.222;18.670;2023-03-20T11:46:22;100305.19;;;17.32;43.87
67052;BME280;53957;47.222;18.670;2023-03-20T11:49:53;100311.97;;;17.89;42.15
67052;BME280;53957;47.222;18.670;2023-03-20T11:53:01;100313.28;;;17.83;39.63
67052;BME280;53957;47.222;18.670;2023-03-20T11:59:33;100319.94;;;17.55;42.88
67052;BME280;53957;47.222;18.670;2023-03-20T12:02:46;100316.88;;;17.66;40.92
67052;BME280;53957;47.222;18.670;2023-03-20T12:06:07;100316.31;;;17.30;41.73
67052;BME280;53957;47.222;18.670;2023-03-20T12:15:51;100296.41;;;17.44;41.75
67052;BME280;53957;47.222;18.670;2023-03-20T12:18:58;100289.62;;;17.37;41.29
67052;BME280;53957;47.222;18.670;2023-03-20T12:22:33;100292.00;;;17.39;43.53
67052;BME280;53957;47.222;18.670;2023-03-20T12:28:59;100276.72;;;16.83;43.81
67052;BME280;53957;47.222;18.670;2023-03-20T12:32:28;100284.03;;;16.74;42.80
67052;BME280;53957;47.222;18.670;2023-03-20T12:35:48;100278.00;;;17.16;42.07
67052;BME280;53957;47.222;18.670;2023-03-20T12:39:17;100278.38;;;17.35;43.09
67052;BME280;53957;47.222;18.670;2023-03-20T12:45:39;100280.75;;;17.07;43.14
67052;BME280;53957;47.222;18.670;2023-03-20T13:03:01;100257.34;;;16.90;44.83
67052;BME280;53957;47.222;18.670;2023-03-20T13:20:59;100250.28;;;17.15;43.77
67052;BME280;53957;47.222;18.670;2023-03-20T13:24:46;100252.12;;;17.24;45.60
67052;BME280;53957;47.222;18.670;2023-03-20T13:32:19;100244.56;;;17.17;45.24
67052;BME280;53957;47.222;18.670;2023-03-20T13:39:49;100246.44;;;17.67;42.70
67052;BME280;53957;47.222;18.670;2023-03-20T13:43:24;100230.13;;;16.92;44.20
67052;BME280;53957;47.222;18.670;2023-03-20T13:46:56;100234.59;;;17.09;45.56
67052;BME280;53957;47.222;18.670;2023-03-20T13:50:38;100229.63;;;17.19;47.02
67052;BME280;53957;47.222;18.670;2023-03-20T13:58:13;100219.25;;;17.51;43.40
67052;BME280;53957;47.222;18.670;2023-03-20T14:05:21;100222.16;;;17.67;41.39
67052;BME280;53957;47.222;18.670;2023-03-20T14:08:52;100223.37;;;17.91;41.51
67052;BME280;53957;47.222;18.670;2023-03-20T14:12:59;100228.25;;;17.34;46.19
67052;BME280;53957;47.222;18.670;2023-03-20T14:16:13;100223.97;;;17.12;47.09
67052;BME280;53957;47.222;18.670;2023-03-20T14:19:36;100229.66;;;16.81;45.27
67052;BME280;53957;47.222;18.670;2023-03-20T14:23:00;100230.28;;;16.78;45.44
67052;BME280;53957;47.222;18.670;2023-03-20T14:26:29;100230.41;;;16.90;46.98
67052;BME280;53957;47.222;18.670;2023-03-20T14:29:53;100222.56;;;17.06;46.58
67052;BME280;53957;47.222;18.670;2023-03-20T14:36:21;100220.37;;;16.69;48.46
67052;BME280;53957;47.222;18.670;2023-03-20T14:39:51;100219.81;;;16.85;47.60
67052;BME280;53957;47.222;18.670;2023-03-20T14:43:00;100220.41;;;16.99;47.75
67052;BME280;53957;47.222;18.670;2023-03-20T14:49:36;100207.44;;;16.84;49.03
67052;BME280;53957;47.222;18.670;2023-03-20T14:56:07;100206.47;;;16.97;46.93
67052;BME280;53957;47.222;18.670;2023-03-20T14:59:13;100207.06;;;16.64;48.52
67052;BME280;53957;47.222;18.670;2023-03-20T15:02:35;100206.06;;;16.39;48.58
67052;BME280;53957;47.222;18.670;2023-03-20T15:06:03;100209.69;;;16.43;47.52
67052;BME280;53957;47.222;18.670;2023-03-20T15:09:08;100208.25;;;16.46;49.19
67052;BME280;53957;47.222;18.670;2023-03-20T15:12:17;100211.19;;;16.23;50.01
67052;BME280;53957;47.222;18.670;2023-03-20T15:15:27;100199.41;;;16.45;49.31
67052;BME280;53957;47.222;18.670;2023-03-20T15:18:35;100201.12;;;16.50;51.10
67052;BME280;53957;47.222;18.670;2023-03-20T15:21:39;100200.41;;;16.23;51.70
67052;BME280;53957;47.222;18.670;2023-03-20T15:24:54;100202.81;;;16.16;50.93
67052;BME280;53957;47.222;18.670;2023-03-20T15:27:58;100198.66;;;16.27;50.47
67052;BME280;53957;47.222;18.670;2023-03-20T15:31:01;100196.63;;;16.24;50.69
67052;BME280;53957;47.222;18.670;2023-03-20T15:34:16;100199.50;;;16.19;53.00
67052;BME280;53957;47.222;18.670;2023-03-20T15:37:22;100197.22;;;16.38;51.90
67052;BME280;53957;47.222;18.670;2023-03-20T15:40:28;100192.66;;;16.30;52.63
67052;BME280;53957;47.222;18.670;2023-03-20T15:44:21;100195.28;;;16.48;50.88
67052;BME280;53957;47.222;18.670;2023-03-20T15:47:25;100195.56;;;16.55;50.59
67052;BME280;53957;47.222;18.670;2023-03-20T15:50:31;100203.37;;;16.78;49.11
67052;BME280;53957;47.222;18.670;2023-03-20T15:53:37;100200.38;;;16.79;50.09
67052;BME280;53957;47.222;18.670;2023-03-20T15:57:02;100204.25;;;16.61;49.51
67052;BME280;53957;47.222;18.670;2023-03-20T16:00:13;100199.94;;;16.68;48.18
67052;BME280;53957;47.222;18.670;2023-03-20T16:03:59;100199.34;;;16.54;49.71
67052;BME280;53957;47.222;18.670;2023-03-20T16:07:04;100201.50;;;16.31;51.53
67052;BME280;53957;47.222;18.670;2023-03-20T16:10:27;100203.94;;;16.06;52.71
67052;BME280;53957;47.222;18.670;2023-03-20T16:13:34;100199.81;;;16.08;52.44
67052;BME280;53957;47.222;18.670;2023-03-20T16:16:47;100203.59;;;16.07;52.85
67052;BME280;53957;47.222;18.670;2023-03-20T16:20:15;100202.84;;;15.81;53.70
67052;BME280;53957;47.222;18.670;2023-03-20T16:23:32;100199.84;;;15.47;55.73
67052;BME280;53957;47.222;18.670;2023-03-20T16:26:40;100197.78;;;15.53;55.24
67052;BME280;53957;47.222;18.670;2023-03-20T16:29:49;100200.91;;;15.20;57.25
67052;BME280;53957;47.222;18.670;2023-03-20T16:32:58;100199.19;;;15.06;57.50
67052;BME280;53957;47.222;18.670;2023-03-20T16:36:03;100199.25;;;14.84;60.01
67052;BME280;53957;47.222;18.670;2023-03-20T16:42:23;100206.87;;;14.59;61.94
67052;BME280;53957;47.222;18.670;2023-03-20T16:45:29;100208.56;;;14.46;61.90
67052;BME280;53957;47.222;18.670;2023-03-20T16:48:35;100206.41;;;14.25;63.50
67052;BME280;53957;47.222;18.670;2023-03-20T16:51:42;100215.19;;;14.17;64.01
67052;BME280;53957;47.222;18.670;2023-03-20T16:54:45;100210.03;;;13.98;65.38
67052;BME280;53957;47.222;18.670;2023-03-20T16:57:52;100213.81;;;13.74;67.07
67052;BME280;53957;47.222;18.670;2023-03-20T17:01:06;100213.84;;;13.60;67.34
67052;BME280;53957;47.222;18.670;2023-03-20T17:07:29;100218.19;;;13.19;71.78
67052;BME280;53957;47.222;18.670;2023-03-20T17:10:35;100229.31;;;13.13;72.57
67052;BME280;53957;47.222;18.670;2023-03-20T17:13:40;100227.13;;;13.01;72.56
67052;BME280;53957;47.222;18.670;2023-03-20T17:16:43;100228.53;;;12.84;74.08
67052;BME280;53957;47.222;18.670;2023-03-20T17:19:50;100232.50;;;12.73;74.08
67052;BME280;53957;47.222;18.670;2023-03-20T17:22:53;100235.44;;;12.57;74.20
67052;BME280;53957;47.222;18.670;2023-03-20T17:26:38;100234.56;;;12.62;73.74
67052;BME280;53957;47.222;18.670;2023-03-20T17:29:46;100230.28;;;12.47;74.77
67052;BME280;53957;47.222;18.670;2023-03-20T17:32:51;100241.97;;;12.51;74.29
67052;BME280;53957;47.222;18.670;2023-03-20T17:35:58;100239.38;;;12.46;73.66
67052;BME280;53957;47.222;18.670;2023-03-20T17:39:16;100242.16;;;12.41;75.53
67052;BME280;53957;47.222;18.670;2023-03-20T17:42:21;100233.72;;;12.34;75.56
67052;BME280;53957;47.222;18.670;2023-03-20T17:45:26;100238.81;;;12.16;76.35
67052;BME280;53957;47.222;18.670;2023-03-20T17:48:30;100240.84;;;12.05;76.37
67052;BME280;53957;47.222;18.670;2023-03-20T17:51:33;100244.88;;;11.84;77.95
67052;BME280;53957;47.222;18.670;2023-03-20T17:54:36;100231.41;;;11.56;79.62
67052;BME280;53957;47.222;18.670;2023-03-20T17:57:40;100239.91;;;11.39;78.88
67052;BME280;53957;47.222;18.670;2023-03-20T18:00:43;100237.03;;;11.11;76.43
67052;BME280;53957;47.222;18.670;2023-03-20T18:04:06;100243.47;;;10.86;73.99
67052;BME280;53957;47.222;18.670;2023-03-20T18:07:12;100239.22;;;10.55;76.04
67052;BME280;53957;47.222;18.670;2023-03-20T18:10:30;100234.63;;;10.31;78.45
67052;BME280;53957;47.222;18.670;2023-03-20T18:13:33;100234.25;;;10.14;79.09
67052;BME280;53957;47.222;18.670;2023-03-20T18:16:37;100236.75;;;10.00;80.81
67052;BME280;53957;47.222;18.670;2023-03-20T18:19:43;100243.28;;;9.78;82.17
67052;BME280;53957;47.222;18.670;2023-03-20T18:22:55;100249.72;;;9.72;81.30
67052;BME280;53957;47.222;18.670;2023-03-20T18:26:02;100242.59;;;9.57;82.51
67052;BME280;53957;47.222;18.670;2023-03-20T18:29:10;100248.81;;;9.42;83.32
67052;BME280;53957;47.222;18.670;2023-03-20T18:32:17;100245.69;;;9.25;84.39
67052;BME280;53957;47.222;18.670;2023-03-20T18:35:20;100251.59;;;9.11;83.81
67052;BME280;53957;47.222;18.670;2023-03-20T18:38:23;100255.09;;;8.96;84.26
67052;BME280;53957;47.222;18.670;2023-03-20T18:41:27;100258.56;;;8.81;85.26
67052;BME280;53957;47.222;18.670;2023-03-20T18:44:33;100265.25;;;8.74;86.03
67052;BME280;53957;47.222;18.670;2023-03-20T18:47:37;100258.09;;;8.59;86.92
67052;BME280;53957;47.222;18.670;2023-03-20T18:50:40;100251.72;;;8.54;87.37
67052;BME280;53957;47.222;18.670;2023-03-20T18:53:46;100256.25;;;8.49;87.88
67052;BME280;53957;47.222;18.670;2023-03-20T18:56:53;100258.34;;;8.47;88.50
67052;BME280;53957;47.222;18.670;2023-03-20T19:00:01;100263.38;;;8.38;90.30
67052;BME280;53957;47.222;18.670;2023-03-20T19:03:07;100258.59;;;8.25;91.30
67052;BME280;53957;47.222;18.670;2023-03-20T19:06:13;100258.34;;;8.16;91.96
67052;BME280;53957;47.222;18.670;2023-03-20T19:09:38;100255.94;;;8.09;92.25